Ferndale, Washington
Current Conditions -  °F | °C
As of 3:53 AM on Friday 24 Oct 2014 (Local Time) from KBLI Reporting Station
Overcast Overcast  
Wind Chill: 49°   Ceiling: 3500
Heat Index: 49°   Visibility: 10mi
Dew Point: 45°   Wind: 0mph
Humidity: 86%   Direction: NA
Pressure: 30.01"   Gusts: NA
Location:  48.85°N, 122.59°W
Report Text: KBLI 241053Z AUTO 00000KT 10SM OVC035 09/07 A3001 RMK AO2 SLP170 T00940072
Loading
Personal Weather Stations






























Interactive Weather Map
Tropical Storm Tracking
New forecast layout! Learn more

10-Day Weather Forecast

Advertisements
Track Severe Weather on mobile